Time;durP1;ratioP1;P1;durP2;ratioP2;P2;SDS_P1;SDS_P2;PMS_P1;PMS_P2;Temp;Humidity;BMP_temperature;BMP_pressure;BME280_temperature;BME280_humidity;BME280_pressure;Samples;Min_cycle;Max_cycle;Signal;HPM_P1;HPM_P2
2022/06/10 00:00:02;;;;;;;4.85;3.33;;;;;;;14.95;71.24;100067.16;344135;28;1289;-68
2022/06/10 00:00:17;;;;;;;5.93;3.60;;;;;;;14.94;71.31;100060.22;343519;28;1972;-68
2022/06/10 00:00:31;;;;;;;6.63;4.03;;;;;;;14.93;71.31;100061.13;342879;28;1369;-68
2022/06/10 00:00:43;;;;;;;6.43;4.30;;;;;;;14.93;71.21;100059.38;343424;28;1269;-68
2022/06/10 00:00:56;;;;;;;5.22;4.10;;;;;;;14.94;71.24;100057.59;342251;28;1883;-68
2022/06/10 00:01:09;;;;;;;5.10;4.03;;;;;;;14.93;71.23;100064.63;342986;28;1254;-69
2022/06/10 00:01:21;;;;;;;4.55;3.80;;;;;;;14.93;71.14;100059.38;342714;28;1321;-68
2022/06/10 00:01:33;;;;;;;4.20;3.60;;;;;;;14.93;71.17;100058.50;343615;28;1274;-68
2022/06/10 00:01:45;;;;;;;5.45;3.60;;;;;;;14.93;71.14;100059.38;343740;28;1114;-68
2022/06/10 00:01:57;;;;;;;7.30;3.85;;;;;;;14.93;71.35;100059.38;342264;28;2016;-68
2022/06/10 00:02:09;;;;;;;7.93;3.65;;;;;;;14.92;71.50;100064.69;343326;28;1779;-68
2022/06/10 00:02:21;;;;;;;7.35;3.35;;;;;;;14.92;71.37;100062.06;342911;28;2057;-68
2022/06/10 00:02:34;;;;;;;4.95;3.10;;;;;;;14.88;71.72;100070.97;343695;28;1422;-69
2022/06/10 00:02:46;;;;;;;4.90;2.92;;;;;;;14.85;71.94;100055.38;342952;28;1929;-68
2022/06/10 00:02:58;;;;;;;4.78;2.70;;;;;;;14.83;71.88;100058.09;342310;28;1850;-68
2022/06/10 00:03:12;;;;;;;5.43;2.45;;;;;;;14.82;71.92;100068.63;343545;28;1702;-68
2022/06/10 00:03:25;;;;;;;6.20;2.55;;;;;;;14.80;71.79;100062.59;343702;28;1078;-68
2022/06/10 00:03:39;;;;;;;6.43;2.50;;;;;;;14.78;71.97;100070.50;343689;28;1601;-68
2022/06/10 00:03:51;;;;;;;5.93;2.60;;;;;;;14.78;71.78;100065.28;342849;28;1963;-68
2022/06/10 00:04:03;;;;;;;5.15;2.50;;;;;;;14.76;71.92;100070.56;342057;28;1954;-68
2022/06/10 00:04:15;;;;;;;3.85;2.22;;;;;;;14.79;71.86;100072.22;343258;28;1291;-68
2022/06/10 00:04:27;;;;;;;3.95;2.13;;;;;;;14.81;71.90;100066.91;343678;28;1304;-68
2022/06/10 00:04:40;;;;;;;2.92;1.90;;;;;;;14.81;71.58;100064.28;343202;28;2105;-68
2022/06/10 00:04:51;;;;;;;3.67;1.77;;;;;;;14.81;71.37;100065.16;342574;28;1712;-68
2022/06/10 00:05:04;;;;;;;3.80;1.80;;;;;;;14.83;71.47;100070.31;343477;28;1891;-68
2022/06/10 00:05:20;;;;;;;3.55;1.73;;;;;;;14.84;71.40;100069.41;343358;28;1222;-68
2022/06/10 00:05:36;;;;;;;2.25;1.58;;;;;;;14.84;71.11;100069.41;343434;28;1520;-68
2022/06/10 00:05:49;;;;;;;3.50;1.50;;;;;;;14.84;71.16;100069.41;342781;28;1843;-68
2022/06/10 00:06:05;;;;;;;4.00;1.60;;;;;;;14.84;71.28;100059.78;343561;28;1775;-68
2022/06/10 00:06:17;;;;;;;4.67;1.90;;;;;;;14.84;71.15;100058.94;342710;28;1987;-68
2022/06/10 00:06:29;;;;;;;5.32;1.90;;;;;;;14.85;71.18;100065.84;343551;28;1488;-68
2022/06/10 00:06:41;;;;;;;4.82;1.90;;;;;;;14.84;71.12;100064.16;342823;28;1749;-68
2022/06/10 00:06:53;;;;;;;2.75;1.80;;;;;;;14.84;71.09;100074.63;342346;28;1836;-68
2022/06/10 00:07:05;;;;;;;2.70;1.80;;;;;;;14.84;71.32;100065.00;343374;28;1922;-68
2022/06/10 00:07:17;;;;;;;2.85;1.80;;;;;;;14.84;71.45;100061.56;341888;28;1888;-68
2022/06/10 00:07:34;;;;;;;3.83;2.03;;;;;;;14.83;71.31;100067.69;342986;28;1778;-68
2022/06/10 00:07:46;;;;;;;4.18;2.30;;;;;;;14.81;71.36;100064.28;343596;28;1259;-68
2022/06/10 00:07:58;;;;;;;3.92;2.30;;;;;;;14.81;71.34;100069.53;342601;28;1767;-68
2022/06/10 00:08:13;;;;;;;3.67;2.00;;;;;;;14.81;71.50;100069.53;343500;28;1065;-68
2022/06/10 00:08:29;;;;;;;3.60;1.67;;;;;;;14.82;71.53;100071.25;343471;28;1386;-68
2022/06/10 00:08:47;;;;;;;3.97;1.85;;;;;;;14.83;71.46;100072.91;343762;28;1034;-68
2022/06/10 00:08:59;;;;;;;3.80;1.95;;;;;;;14.83;71.31;100068.56;342701;28;1979;-68
2022/06/10 00:09:12;;;;;;;3.78;2.00;;;;;;;14.81;71.45;100070.41;343611;28;1916;-68
2022/06/10 00:09:24;;;;;;;4.50;2.10;;;;;;;14.83;71.60;100067.69;343587;28;1310;-68
2022/06/10 00:09:36;;;;;;;4.10;2.03;;;;;;;14.83;71.53;100073.78;343772;28;1064;-68
2022/06/10 00:09:55;;;;;;;3.10;2.05;;;;;;;14.80;71.96;100067.84;342652;28;1949;-68
2022/06/10 00:10:10;;;;;;;3.03;2.10;;;;;;;14.77;72.38;100074.91;343554;28;1872;-68
2022/06/10 00:10:24;;;;;;;3.13;2.20;;;;;;;14.75;72.36;100071.50;342428;28;1696;-68
2022/06/10 00:10:36;;;;;;;5.05;2.20;;;;;;;14.76;72.29;100067.97;342544;28;1094;-68
2022/06/10 00:10:50;;;;;;;6.47;2.10;;;;;;;14.78;72.00;100073.97;342216;28;1070;-68
2022/06/10 00:11:05;;;;;;;6.95;2.00;;;;;;;14.78;71.83;100071.34;343212;28;1858;-68
2022/06/10 00:11:17;;;;;;;3.75;1.95;;;;;;;14.78;72.00;100073.13;343392;28;1126;-68
2022/06/10 00:11:29;;;;;;;3.28;2.00;;;;;;;14.76;72.33;100067.97;343019;28;1891;-68
2022/06/10 00:11:41;;;;;;;3.80;2.08;;;;;;;14.74;71.88;100075.03;343531;28;1148;-68
2022/06/10 00:11:53;;;;;;;4.25;1.98;;;;;;;14.74;71.63;100074.19;341930;28;1975;-68
2022/06/10 00:12:05;;;;;;;4.63;2.03;;;;;;;14.76;71.61;100078.44;341504;28;1773;-68
2022/06/10 00:12:17;;;;;;;3.80;2.10;;;;;;;14.77;71.31;100074.91;341898;28;1254;-68
2022/06/10 00:12:29;;;;;;;3.37;2.07;;;;;;;14.80;71.17;100078.31;342035;28;1334;-68
2022/06/10 00:12:42;;;;;;;4.50;1.90;;;;;;;14.78;71.05;100078.38;342101;28;1044;-68
2022/06/10 00:12:57;;;;;;;4.13;1.83;;;;;;;14.78;70.70;100083.59;340703;28;1601;-68
2022/06/10 00:13:09;;;;;;;4.75;2.00;;;;;;;14.78;70.73;100079.22;341686;28;1778;-68
2022/06/10 00:13:24;;;;;;;4.70;2.10;;;;;;;14.70;70.72;100083.91;342158;28;1749;-68
2022/06/10 00:13:38;;;;;;;3.35;1.90;;;;;;;14.67;70.07;100078.84;341923;28;1668;-68
2022/06/10 00:13:50;;;;;;;3.92;1.83;;;;;;;14.62;70.16;100080.78;341666;28;2176;-68
2022/06/10 00:14:02;;;;;;;4.63;2.00;;;;;;;14.60;70.36;100077.38;342212;28;1741;-68
2022/06/10 00:14:14;;;;;;;3.97;2.05;;;;;;;14.63;70.39;100073.78;341994;28;1251;-68
2022/06/10 00:14:26;;;;;;;3.40;1.98;;;;;;;14.61;70.44;100079.09;342305;28;1306;-68
2022/06/10 00:14:38;;;;;;;3.67;1.90;;;;;;;14.60;71.01;100074.75;342255;28;1144;-68
2022/06/10 00:14:50;;;;;;;3.53;1.90;;;;;;;14.59;71.68;100080.94;341547;28;1984;-68
2022/06/10 00:15:03;;;;;;;4.07;1.98;;;;;;;14.59;71.64;100080.94;341664;28;2072;-68
2022/06/10 00:15:16;;;;;;;4.05;2.00;;;;;;;14.60;71.47;100077.38;342187;28;1016;-68
2022/06/10 00:15:29;;;;;;;4.18;2.00;;;;;;;14.57;71.98;100080.16;342162;28;1371;-68
2022/06/10 00:15:41;;;;;;;4.13;2.05;;;;;;;14.57;71.88;100078.38;341865;28;1316;-68
2022/06/10 00:15:54;;;;;;;4.50;2.10;;;;;;;14.53;72.07;100081.16;342221;28;1028;-68
2022/06/10 00:16:06;;;;;;;4.70;2.22;;;;;;;14.53;72.02;100082.00;342266;28;1268;-68
2022/06/10 00:16:20;;;;;;;3.53;2.10;;;;;;;14.52;71.57;100084.69;342130;28;1063;-68
2022/06/10 00:16:33;;;;;;;4.07;1.90;;;;;;;14.55;71.52;100081.94;342591;28;1503;-68
2022/06/10 00:16:45;;;;;;;3.75;1.73;;;;;;;14.56;71.19;100075.81;343624;28;1291;-68
2022/06/10 00:16:57;;;;;;;3.45;1.75;;;;;;;14.57;70.95;100083.59;342709;28;2146;-68
2022/06/10 00:17:09;;;;;;;2.92;1.70;;;;;;;14.60;70.80;100081.78;343684;28;1778;-68
2022/06/10 00:17:21;;;;;;;2.83;1.70;;;;;;;14.59;70.59;100075.69;342446;28;1031;-68
2022/06/10 00:17:33;;;;;;;3.60;1.67;;;;;;;14.60;70.19;100081.78;342348;28;1746;-68
2022/06/10 00:17:46;;;;;;;4.88;1.88;;;;;;;14.60;70.06;100082.63;343177;28;1120;-68
2022/06/10 00:17:59;;;;;;;4.73;1.90;;;;;;;14.59;70.39;100075.69;342614;28;1933;-68
2022/06/10 00:18:11;;;;;;;3.75;1.90;;;;;;;14.59;70.38;100078.31;343419;28;1912;-68
2022/06/10 00:18:27;;;;;;;3.40;1.80;;;;;;;14.60;70.33;100077.38;343525;28;1063;-68
2022/06/10 00:18:40;;;;;;;4.07;1.90;;;;;;;14.58;71.61;100069.59;343370;28;1055;-68
2022/06/10 00:18:52;;;;;;;4.03;2.00;;;;;;;14.57;71.85;100077.53;343586;28;1993;-68
2022/06/10 00:19:04;;;;;;;2.15;1.80;;;;;;;14.58;71.45;100076.59;342196;28;1036;-68
2022/06/10 00:19:16;;;;;;;2.88;1.80;;;;;;;14.56;71.24;100070.56;342341;28;1152;-68
2022/06/10 00:19:28;;;;;;;3.80;1.70;;;;;;;14.58;71.10;100079.22;341982;28;1289;-68
2022/06/10 00:19:40;;;;;;;3.17;1.60;;;;;;;14.60;71.16;100081.78;342238;28;1061;-68
2022/06/10 00:19:53;;;;;;;3.33;1.60;;;;;;;14.58;70.99;100085.28;342110;28;1349;-69
2022/06/10 00:20:07;;;;;;;3.53;1.70;;;;;;;14.59;70.80;100091.41;342504;28;1053;-68
2022/06/10 00:20:22;;;;;;;3.50;1.70;;;;;;;14.57;70.56;100085.38;341581;28;1253;-68
2022/06/10 00:20:35;;;;;;;3.33;1.70;;;;;;;14.54;70.54;100090.69;342085;28;1395;-68
2022/06/10 00:20:47;;;;;;;4.70;1.80;;;;;;;14.55;70.52;100081.94;340651;29;2260;-68
2022/06/10 00:21:04;;;;;;;4.57;1.92;;;;;;;14.51;71.04;100072.53;340741;29;1636;-68
2022/06/10 00:21:18;;;;;;;4.45;1.90;;;;;;;14.51;71.42;100085.59;341013;29;1283;-68
2022/06/10 00:21:30;;;;;;;4.72;1.88;;;;;;;14.52;71.38;100082.06;341192;28;1204;-68
2022/06/10 00:21:42;;;;;;;4.65;1.90;;;;;;;14.50;71.45;100081.28;342559;28;1028;-68
2022/06/10 00:21:54;;;;;;;4.95;2.00;;;;;;;14.51;71.52;100085.59;342289;28;1072;-68
2022/06/10 00:22:07;;;;;;;6.43;1.90;;;;;;;14.51;71.44;100088.22;342235;28;1232;-68
2022/06/10 00:22:18;;;;;;;7.00;1.80;;;;;;;14.52;71.37;100092.53;342541;28;1039;-68
2022/06/10 00:22:31;;;;;;;7.25;1.88;;;;;;;14.50;71.46;100081.28;342286;28;1232;-68
2022/06/10 00:22:43;;;;;;;4.55;1.90;;;;;;;14.51;71.18;100083.84;342154;28;1061;-68
2022/06/10 00:22:58;;;;;;;4.82;2.05;;;;;;;14.49;71.30;100090.06;341934;28;1258;-68
2022/06/10 00:23:11;;;;;;;4.97;2.17;;;;;;;14.48;71.46;100085.72;342930;28;1196;-68
2022/06/10 00:23:23;;;;;;;4.10;2.28;;;;;;;14.47;71.78;100076.19;343667;28;1099;-68
2022/06/10 00:23:35;;;;;;;5.68;2.15;;;;;;;14.48;71.38;100090.94;342489;28;1115;-68
2022/06/10 00:23:47;;;;;;;6.22;1.70;;;;;;;14.49;71.01;100084.81;342121;28;1077;-68
2022/06/10 00:23:59;;;;;;;6.00;1.70;;;;;;;14.49;70.77;100087.44;342722;28;1544;-68
2022/06/10 00:24:11;;;;;;;5.60;1.80;;;;;;;14.50;70.70;100078.66;343544;28;1019;-68
2022/06/10 00:24:23;;;;;;;4.95;1.83;;;;;;;14.49;70.55;100074.34;343534;28;1027;-68
2022/06/10 00:24:35;;;;;;;4.03;1.63;;;;;;;14.51;70.51;100083.84;341917;28;1078;-68
2022/06/10 00:24:48;;;;;;;4.07;1.63;;;;;;;14.48;71.00;100083.09;342300;28;1278;-68
2022/06/10 00:25:01;;;;;;;4.35;1.73;;;;;;;14.49;70.71;100083.03;343590;28;1060;-68
2022/06/10 00:25:13;;;;;;;4.55;1.70;;;;;;;14.48;70.83;100086.56;342327;28;1131;-68
2022/06/10 00:25:27;;;;;;;5.50;1.77;;;;;;;14.44;71.41;100081.53;340262;28;1879;-68
2022/06/10 00:25:39;;;;;;;4.20;1.88;;;;;;;14.43;71.68;100080.69;340759;29;1249;-68
2022/06/10 00:25:52;;;;;;;3.65;1.83;;;;;;;14.39;72.48;100084.34;340396;28;1804;-68
2022/06/10 00:26:05;;;;;;;4.30;1.80;;;;;;;14.39;72.41;100090.41;339446;29;1582;-68
2022/06/10 00:26:17;;;;;;;4.78;1.80;;;;;;;14.36;72.51;100079.22;340761;29;1128;-68
2022/06/10 00:26:29;;;;;;;4.13;1.85;;;;;;;14.32;72.18;100088.13;340852;29;1311;-68
2022/06/10 00:26:41;;;;;;;4.15;1.85;;;;;;;14.36;72.07;100087.06;340648;29;1075;-68
2022/06/10 00:26:53;;;;;;;4.95;1.80;;;;;;;14.36;71.62;100084.47;339943;28;1748;-68
2022/06/10 00:27:05;;;;;;;4.70;1.70;;;;;;;14.38;71.58;100087.84;339901;29;1838;-68
2022/06/10 00:27:19;;;;;;;3.63;1.60;;;;;;;14.41;71.27;100079.03;341636;28;1103;-68
2022/06/10 00:27:31;;;;;;;3.05;1.55;;;;;;;14.43;71.16;100085.91;342474;28;1639;-68
2022/06/10 00:27:43;;;;;;;3.83;1.52;;;;;;;14.43;71.07;100080.69;343376;28;1323;-68
2022/06/10 00:27:55;;;;;;;3.90;1.50;;;;;;;14.46;70.85;100084.94;342375;28;1935;-68
2022/06/10 00:28:08;;;;;;;4.78;1.70;;;;;;;14.43;70.78;100080.69;342863;28;1915;-68
2022/06/10 00:28:20;;;;;;;4.65;1.88;;;;;;;14.44;70.67;100098.06;342978;28;2188;-68
2022/06/10 00:28:33;;;;;;;3.20;1.80;;;;;;;14.42;70.71;100089.44;343416;28;1544;-68
2022/06/10 00:28:45;;;;;;;3.42;1.85;;;;;;;14.42;70.94;100083.34;341951;28;1257;-68
2022/06/10 00:28:59;;;;;;;4.40;2.05;;;;;;;14.43;70.82;100090.28;342405;28;1752;-68
2022/06/10 00:29:11;;;;;;;5.18;2.10;;;;;;;14.45;70.92;100083.25;343540;28;1947;-68
2022/06/10 00:29:23;;;;;;;4.93;1.92;;;;;;;14.46;71.10;100084.94;343487;28;1317;-68
2022/06/10 00:29:35;;;;;;;4.75;1.83;;;;;;;14.47;70.95;100091.88;342428;28;1167;-68
2022/06/10 00:29:48;;;;;;;3.85;1.75;;;;;;;14.47;71.01;100076.19;343593;28;1060;-68
2022/06/10 00:30:00;;;;;;;2.73;1.60;;;;;;;14.46;70.90;100082.31;343219;28;1619;-68
2022/06/10 00:30:13;;;;;;;2.47;1.63;;;;;;;14.45;70.94;100084.09;342401;28;1229;-68
2022/06/10 00:30:29;;;;;;;3.13;1.90;;;;;;;14.46;71.22;100082.31;342237;28;1381;-68
2022/06/10 00:30:41;;;;;;;4.78;2.10;;;;;;;14.44;71.46;100085.00;343613;28;1514;-68
2022/06/10 00:30:54;;;;;;;4.60;2.00;;;;;;;14.44;71.46;100092.00;342581;28;1861;-68
2022/06/10 00:31:06;;;;;;;3.30;1.92;;;;;;;14.44;71.38;100086.75;342848;28;1671;-68
2022/06/10 00:31:19;;;;;;;3.15;2.00;;;;;;;14.44;71.08;100092.00;342018;28;1769;-68
2022/06/10 00:31:35;;;;;;;3.70;1.87;;;;;;;14.44;71.09;100086.75;343641;28;1276;-68
2022/06/10 00:31:47;;;;;;;4.22;1.85;;;;;;;14.45;71.26;100083.25;343628;28;1323;-68
2022/06/10 00:31:59;;;;;;;4.35;1.80;;;;;;;14.45;71.06;100088.47;342469;28;1855;-68
2022/06/10 00:32:11;;;;;;;3.00;1.75;;;;;;;14.45;71.23;100085.88;343647;28;1954;-68
2022/06/10 00:32:23;;;;;;;2.58;1.63;;;;;;;14.46;71.27;100091.00;343041;28;1252;-68
2022/06/10 00:32:36;;;;;;;2.55;1.80;;;;;;;14.47;71.05;100086.66;343624;28;1557;-68
2022/06/10 00:32:48;;;;;;;3.05;1.83;;;;;;;14.47;71.18;100084.03;343410;28;1440;-68
2022/06/10 00:33:00;;;;;;;3.63;1.98;;;;;;;14.45;71.06;100081.47;342479;28;1791;-68
2022/06/10 00:33:12;;;;;;;3.25;2.00;;;;;;;14.45;71.35;100078.03;343622;28;1930;-68
2022/06/10 00:33:25;;;;;;;3.17;1.80;;;;;;;14.44;71.15;100084.16;343230;28;1212;-68
2022/06/10 00:33:40;;;;;;;3.38;1.83;;;;;;;14.43;71.38;100082.44;343696;28;1143;-68
2022/06/10 00:33:53;;;;;;;4.32;2.00;;;;;;;14.44;71.32;100084.16;343296;28;2002;-68
2022/06/10 00:34:05;;;;;;;4.68;1.90;;;;;;;14.44;71.46;100081.53;343400;28;1032;-68
2022/06/10 00:34:19;;;;;;;3.80;1.90;;;;;;;14.44;71.36;100084.16;343671;28;1110;-68
2022/06/10 00:34:35;;;;;;;4.68;1.85;;;;;;;14.41;71.95;100081.63;343387;28;1333;-68
2022/06/10 00:34:47;;;;;;;5.00;1.80;;;;;;;14.39;72.18;100086.97;342107;28;1327;-68
2022/06/10 00:34:59;;;;;;;4.38;1.95;;;;;;;14.39;72.02;100090.41;342330;28;1978;-68
2022/06/10 00:35:12;;;;;;;4.15;2.00;;;;;;;14.38;71.94;100087.84;343282;28;1696;-68
2022/06/10 00:35:25;;;;;;;4.70;2.00;;;;;;;14.35;72.22;100083.63;343495;28;1362;-68
2022/06/10 00:35:37;;;;;;;4.40;2.10;;;;;;;14.34;72.57;100091.50;342978;28;2045;-68
2022/06/10 00:35:49;;;;;;;3.97;2.13;;;;;;;14.31;72.30;100089.88;343662;28;1355;-68
2022/06/10 00:36:03;;;;;;;3.70;2.10;;;;;;;14.31;72.16;100092.50;343313;28;1807;-68
2022/06/10 00:36:15;;;;;;;3.40;2.00;;;;;;;14.30;72.29;100089.94;343306;28;1660;-68
2022/06/10 00:36:27;;;;;;;3.70;1.92;;;;;;;14.31;72.25;100086.44;342933;28;1204;-68
2022/06/10 00:36:39;;;;;;;3.75;2.00;;;;;;;14.32;72.09;100083.72;342880;28;1990;-68
2022/06/10 00:36:51;;;;;;;6.85;2.28;;;;;;;14.33;71.83;100085.44;342987;28;1804;-68
2022/06/10 00:37:05;;;;;;;6.15;2.20;;;;;;;14.34;72.03;100084.50;343223;28;1835;-68
2022/06/10 00:37:17;;;;;;;3.40;1.98;;;;;;;14.34;72.11;100086.28;343701;28;1114;-68
2022/06/10 00:37:30;;;;;;;4.03;2.00;;;;;;;14.32;72.46;100083.72;343504;28;1341;-68
2022/06/10 00:37:42;;;;;;;3.37;2.10;;;;;;;14.31;72.91;100089.03;343477;28;1183;-68
2022/06/10 00:37:54;;;;;;;2.97;2.10;;;;;;;14.30;72.96;100090.78;342677;28;1963;-68
2022/06/10 00:38:07;;;;;;;3.88;2.10;;;;;;;14.28;73.02;100084.75;342640;28;1875;-68
2022/06/10 00:38:20;;;;;;;4.30;2.10;;;;;;;14.27;72.58;100090.94;342659;28;1986;-68
2022/06/10 00:38:32;;;;;;;3.45;2.10;;;;;;;14.27;72.94;100087.47;342351;28;1275;-68
2022/06/10 00:38:44;;;;;;;3.55;2.10;;;;;;;14.28;73.12;100091.78;342174;28;1084;-68
2022/06/10 00:38:56;;;;;;;3.05;2.20;;;;;;;14.26;72.71;100089.22;341219;28;1929;-68
2022/06/10 00:39:08;;;;;;;3.20;2.10;;;;;;;14.28;72.77;100087.38;341328;28;1764;-68
2022/06/10 00:39:20;;;;;;;2.60;2.00;;;;;;;14.27;72.51;100088.31;341886;28;1186;-68
2022/06/10 00:39:34;;;;;;;3.35;2.10;;;;;;;14.26;72.30;100093.59;341515;28;1672;-68
2022/06/10 00:39:46;;;;;;;4.07;2.10;;;;;;;14.28;72.06;100087.38;340921;29;1279;-68
2022/06/10 00:39:58;;;;;;;3.00;1.88;;;;;;;14.25;72.21;100091.91;340999;28;1869;-68
2022/06/10 00:40:17;;;;;;;3.83;1.90;;;;;;;14.25;72.25;100087.53;342208;28;1934;-68
2022/06/10 00:40:37;;;;;;;4.47;2.15;;;;;;;14.28;72.20;100082.16;342295;28;1254;-68
2022/06/10 00:40:54;;;;;;;3.90;2.10;;;;;;;14.26;72.15;100086.59;342234;28;1156;-68
2022/06/10 00:41:06;;;;;;;4.45;2.08;;;;;;;14.25;72.01;100087.53;342444;28;1815;-68
2022/06/10 00:41:19;;;;;;;4.53;2.00;;;;;;;14.26;71.98;100083.97;343613;28;1173;-68
2022/06/10 00:41:31;;;;;;;4.40;2.00;;;;;;;14.28;71.95;100084.75;343511;28;1254;-68
2022/06/10 00:41:44;;;;;;;2.72;1.80;;;;;;;14.31;71.65;100092.50;343692;28;1059;-68
2022/06/10 00:41:58;;;;;;;3.38;1.77;;;;;;;14.33;71.54;100088.06;342238;28;1832;-68
2022/06/10 00:42:11;;;;;;;3.80;1.80;;;;;;;14.36;71.59;100084.47;343040;28;1201;-68
2022/06/10 00:42:24;;;;;;;4.25;1.95;;;;;;;14.35;71.47;100088.84;342403;28;1263;-68
2022/06/10 00:42:37;;;;;;;4.05;1.90;;;;;;;14.33;71.57;100082.81;341851;28;1933;-68
2022/06/10 00:42:50;;;;;;;4.07;1.98;;;;;;;14.31;71.92;100087.28;342711;28;1881;-68
2022/06/10 00:43:02;;;;;;;4.65;2.10;;;;;;;14.30;71.92;100080.31;342079;28;1056;-68
2022/06/10 00:43:17;;;;;;;5.05;2.10;;;;;;;14.31;71.64;100089.88;342142;28;1895;-68
2022/06/10 00:43:33;;;;;;;3.80;2.00;;;;;;;14.28;72.40;100082.16;341928;28;1324;-68
2022/06/10 00:43:46;;;;;;;3.20;2.00;;;;;;;14.26;72.66;100089.22;342248;28;1047;-68
2022/06/10 00:43:58;;;;;;;2.55;2.03;;;;;;;14.26;72.79;100094.44;341105;28;1888;-68
2022/06/10 00:44:33;;;;;;;2.80;2.03;;;;;;;14.28;72.40;100082.16;341900;28;1344;-68
2022/06/10 00:44:52;;;;;;;6.07;2.30;;;;;;;14.31;72.48;100087.28;340737;29;1025;-68
2022/06/10 00:45:06;;;;;;;6.25;2.20;;;;;;;14.28;72.35;100082.16;342431;28;1694;-68
2022/06/10 00:45:55;;;;;;;4.13;2.10;;;;;;;14.27;72.14;100084.84;343136;28;1297;-68
2022/06/10 00:46:22;;;;;;;4.10;2.10;;;;;;;14.17;72.40;100079.97;342268;28;1702;-68
2022/06/10 00:46:36;;;;;;;3.05;2.10;;;;;;;14.21;72.44;100079.88;343293;28;1854;-68
2022/06/10 00:46:48;;;;;;;3.97;2.00;;;;;;;14.23;72.27;100086.75;343639;28;1056;-68
2022/06/10 00:47:04;;;;;;;4.65;1.95;;;;;;;14.23;72.22;100078.06;343600;28;1090;-68
2022/06/10 00:47:26;;;;;;;4.57;1.95;;;;;;;14.25;72.28;100081.44;343471;28;1058;-68
2022/06/10 00:47:41;;;;;;;3.92;2.03;;;;;;;14.24;72.18;100080.56;342567;28;1933;-68
2022/06/10 00:47:54;;;;;;;2.97;1.98;;;;;;;14.25;72.20;100082.28;342681;28;1731;-68
2022/06/10 00:48:10;;;;;;;3.38;2.00;;;;;;;14.25;72.30;100077.06;343640;28;1173;-68
2022/06/10 00:48:31;;;;;;;4.57;2.05;;;;;;;14.27;72.14;100083.09;342192;28;1057;-68
2022/06/10 00:49:07;;;;;;;5.65;2.20;;;;;;;14.28;71.98;100076.91;343504;28;975;-68
2022/06/10 00:49:20;;;;;;;4.68;2.15;;;;;;;14.29;71.97;100073.41;343065;28;1643;-68
2022/06/10 00:49:32;;;;;;;4.10;2.10;;;;;;;14.29;71.97;100078.63;342368;28;1160;-68
2022/06/10 00:49:54;;;;;;;5.65;2.38;;;;;;;14.23;72.23;100072.81;342897;28;1705;-68
2022/06/10 00:50:22;;;;;;;7.30;2.40;;;;;;;14.16;72.46;100080.88;342550;28;1809;-69
2022/06/10 00:50:34;;;;;;;5.50;2.22;;;;;;;14.17;72.39;100079.16;343160;28;1918;-68
2022/06/10 00:50:47;;;;;;;5.88;2.28;;;;;;;14.17;72.34;100079.97;343068;28;1419;-68
2022/06/10 00:51:04;;;;;;;5.40;2.13;;;;;;;14.18;72.13;100075.59;342265;28;1916;-68
2022/06/10 00:51:31;;;;;;;3.38;2.05;;;;;;;14.19;72.16;100079.94;342247;28;1108;-68
2022/06/10 00:51:47;;;;;;;4.78;2.13;;;;;;;14.20;71.98;100081.63;343366;28;1007;-68
2022/06/10 00:51:59;;;;;;;4.13;2.03;;;;;;;14.19;72.10;100079.94;342700;28;1967;-68
2022/06/10 00:52:22;;;;;;;4.10;1.83;;;;;;;14.19;72.34;100085.16;343402;28;1993;-68
2022/06/10 00:52:39;;;;;;;5.40;2.00;;;;;;;14.16;72.55;100078.28;343444;28;1468;-68
2022/06/10 00:52:57;;;;;;;5.25;2.20;;;;;;;14.16;73.25;100083.50;342601;28;1794;-68
2022/06/10 00:53:14;;;;;;;10.52;2.50;;;;;;;14.15;72.87;100080.97;342994;28;1712;-68
2022/06/10 00:53:35;;;;;;;9.93;2.30;;;;;;;14.12;72.54;100083.69;343537;28;1324;-68
2022/06/10 00:54:07;;;;;;;3.40;1.90;;;;;;;14.10;72.50;100080.28;342575;28;1100;-68
2022/06/10 00:54:23;;;;;;;5.18;2.03;;;;;;;14.09;72.59;100078.59;342418;28;2078;-68
2022/06/10 00:54:39;;;;;;;3.20;2.00;;;;;;;14.07;72.33;100077.81;342384;28;2175;-68
2022/06/10 00:54:52;;;;;;;3.03;2.00;;;;;;;14.05;72.44;100077.03;343318;28;1272;-68
2022/06/10 00:55:06;;;;;;;3.10;1.90;;;;;;;14.07;72.34;100080.44;343222;28;1755;-68
2022/06/10 00:55:28;;;;;;;4.30;1.92;;;;;;;14.08;72.25;100079.50;343498;28;1234;-68
2022/06/10 00:55:42;;;;;;;4.55;2.00;;;;;;;14.09;72.10;100086.44;343369;28;1200;-68
2022/06/10 00:55:56;;;;;;;3.75;2.20;;;;;;;14.11;71.91;100079.41;341957;28;2130;-68
2022/06/10 00:56:16;;;;;;;3.65;2.05;;;;;;;14.11;72.08;100082.00;343236;28;1690;-68
2022/06/10 00:56:28;;;;;;;3.65;1.90;;;;;;;14.10;72.28;100080.28;342245;28;1609;-68
2022/06/10 00:56:43;;;;;;;4.82;2.20;;;;;;;14.07;71.92;100080.44;343729;28;1022;-68
2022/06/10 00:57:13;;;;;;;4.78;2.25;;;;;;;14.08;72.13;100082.97;342504;28;1919;-68
2022/06/10 00:57:30;;;;;;;3.20;1.70;;;;;;;14.10;72.27;100082.91;342251;28;1301;-68
2022/06/10 00:57:45;;;;;;;3.30;1.67;;;;;;;14.10;72.06;100082.91;343591;28;1068;-68
2022/06/10 00:58:26;;;;;;;4.05;1.50;;;;;;;14.11;71.84;100085.47;342092;28;1724;-68
2022/06/10 00:58:50;;;;;;;3.17;1.65;;;;;;;14.13;71.97;100082.78;340719;29;1229;-68
2022/06/10 00:59:22;;;;;;;3.35;1.58;;;;;;;14.15;71.90;100081.81;343291;28;1755;-68
2022/06/10 00:59:43;;;;;;;3.33;1.50;;;;;;;14.16;71.83;100083.50;343310;28;1591;-68
2022/06/10 01:00:12;;;;;;;2.92;1.70;;;;;;;14.14;71.53;100084.47;342363;28;2020;-68
2022/06/10 01:00:24;;;;;;;4.10;1.80;;;;;;;14.12;71.78;100084.53;342225;28;1286;-68
2022/06/10 01:00:38;;;;;;;3.75;1.90;;;;;;;14.13;71.62;100082.78;342306;28;1389;-68
2022/06/10 01:00:50;;;;;;;3.13;1.80;;;;;;;14.11;71.84;100080.22;342286;28;1146;-68
2022/06/10 01:01:03;;;;;;;2.90;1.60;;;;;;;14.12;71.88;100086.31;342807;28;1870;-68
2022/06/10 01:01:18;;;;;;;5.22;1.75;;;;;;;14.09;72.06;100081.22;343063;28;1312;-68
2022/06/10 01:01:34;;;;;;;5.35;1.80;;;;;;;14.09;71.78;100086.44;342012;28;1278;-68
2022/06/10 01:01:47;;;;;;;3.08;1.80;;;;;;;14.06;71.79;100083.94;341280;28;1324;-68
2022/06/10 01:02:03;;;;;;;4.20;1.85;;;;;;;14.04;72.21;100088.38;341941;28;1794;-68
2022/06/10 01:02:20;;;;;;;4.93;1.90;;;;;;;14.02;72.04;100084.97;342961;28;991;-68
2022/06/10 01:02:35;;;;;;;4.78;1.75;;;;;;;14.02;71.96;100084.97;342421;28;1811;-68
2022/06/10 01:02:47;;;;;;;3.45;1.77;;;;;;;13.99;71.79;100083.34;343059;28;1689;-68
2022/06/10 01:02:59;;;;;;;2.95;1.70;;;;;;;13.97;71.72;100087.78;343284;28;1160;-68
2022/06/10 01:03:11;;;;;;;4.40;1.63;;;;;;;13.95;71.77;100079.16;343563;28;1559;-68
2022/06/10 01:03:23;;;;;;;5.22;1.73;;;;;;;13.93;71.67;100086.19;343565;28;1216;-68
2022/06/10 01:03:35;;;;;;;4.20;1.95;;;;;;;13.90;71.81;100092.38;343739;28;1330;-68
2022/06/10 01:03:50;;;;;;;4.80;2.10;;;;;;;13.83;72.20;100088.31;343384;28;1182;-68
2022/06/10 01:04:02;;;;;;;5.10;2.00;;;;;;;13.75;72.36;100087.78;342009;28;2029;-68
2022/06/10 01:04:14;;;;;;;6.00;2.00;;;;;;;13.61;72.75;100092.69;343415;28;1683;-68
2022/06/10 01:04:27;;;;;;;5.60;2.10;;;;;;;13.53;73.01;100088.59;343420;28;1284;-68
2022/06/10 01:04:40;;;;;;;5.38;1.90;;;;;;;13.56;73.10;100085.88;343535;28;1087;-68
2022/06/10 01:04:55;;;;;;;5.20;1.75;;;;;;;13.58;72.97;100086.66;341762;28;1733;-68
2022/06/10 01:05:13;;;;;;;3.85;1.70;;;;;;;13.51;73.32;100089.56;340721;28;1688;-68
2022/06/10 01:05:27;;;;;;;3.42;1.98;;;;;;;13.49;73.10;100087.00;341349;28;1375;-68
2022/06/10 01:05:39;;;;;;;5.40;2.13;;;;;;;13.49;73.55;100092.22;340981;28;1876;-68
2022/06/10 01:05:51;;;;;;;5.70;2.25;;;;;;;13.48;73.48;100082.69;342097;28;1350;-68
2022/06/10 01:06:03;;;;;;;6.35;2.38;;;;;;;13.43;73.90;100082.00;341163;28;1642;-68
2022/06/10 01:06:15;;;;;;;6.28;2.35;;;;;;;13.44;73.81;100090.69;341831;28;1531;-68
2022/06/10 01:06:27;;;;;;;4.10;2.00;;;;;;;13.43;74.12;100082.00;341875;28;1387;-68
2022/06/10 01:06:39;;;;;;;4.03;2.10;;;;;;;13.44;74.12;100086.34;340793;29;1072;-69
2022/06/10 01:06:51;;;;;;;3.90;2.15;;;;;;;13.45;74.16;100080.19;341058;28;1044;-68
2022/06/10 01:07:04;;;;;;;3.63;1.95;;;;;;;13.48;74.23;100082.69;343082;28;1422;-68
2022/06/10 01:07:21;;;;;;;3.13;1.85;;;;;;;13.48;74.11;100080.09;343097;28;1263;-68
2022/06/10 01:07:37;;;;;;;4.13;1.80;;;;;;;13.51;73.84;100082.56;343475;28;1256;-68